CheckWX is a tool to help pilots better visualize weather data.  It is not intended as a substitute for an official pre-flight weather briefing.

01:06:15 UTC

KCRG TAF
Jacksonville Executive at Craig Airport
Jacksonville, Florida, USA
KCRG 232320Z 2400/2424 09006KT P6SM VCSH SCT005 BKN035 FM240200 13004KT 6SM BR BKN005 FM240400 19004KT 6SM BR BKN003 FM240600 21004KT 1SM BR OVC003 FM240900 22005KT 1/2SM FG OVC001 FM241400 22012KT 5SM BR BKN005 OVC010 FM241600 24014G21KT P6SM VCSH SCT010 OVC050

Feb-24@
00:00 UTC

Feb-24 @ 00:00 UTC

Feb-24@
02:00 UTC

Feb-24 @ 02:00 UTC

KCRG 232320Z 2400/2424 09006KT P6SM VCSH SCT005 BKN035
Wind
  • 090° at 6 KTS
Cloud Levels
  • Scattered at 500' AGL
  • Broken at 3,500' AGL

Feb-24@
02:00 UTC

Feb-24 @ 02:00 UTC

Feb-24@
04:00 UTC

Feb-24 @ 04:00 UTC

FM240200 13004KT 6SM BR BKN005

From

From Standard forecast or significant change

Wind
  • 130° at 4 KTS
Conditions
Mist
Cloud Levels
  • Broken at 500' AGL

Feb-24@
04:00 UTC

Feb-24 @ 04:00 UTC

Feb-24@
06:00 UTC

Feb-24 @ 06:00 UTC

FM240400 19004KT 6SM BR BKN003

From

From Standard forecast or significant change

Wind
  • 190° at 4 KTS
Conditions
Mist
Cloud Levels
  • Broken at 300' AGL

Feb-24@
06:00 UTC

Feb-24 @ 06:00 UTC

Feb-24@
09:00 UTC

Feb-24 @ 09:00 UTC

FM240600 21004KT 1SM BR OVC003

From

From Standard forecast or significant change

Wind
  • 210° at 4 KTS
Conditions
Mist
Cloud Levels
  • Overcast at 300' AGL

Feb-24@
09:00 UTC

Feb-24 @ 09:00 UTC

Feb-24@
14:00 UTC

Feb-24 @ 14:00 UTC

FM240900 22005KT 1/2SM FG OVC001

From

From Standard forecast or significant change

Wind
  • 220° at 5 KTS
Conditions
Fog
Cloud Levels
  • Overcast at 100' AGL

Feb-24@
14:00 UTC

Feb-24 @ 14:00 UTC

Feb-24@
16:00 UTC

Feb-24 @ 16:00 UTC

FM241400 22012KT 5SM BR BKN005 OVC010

From

From Standard forecast or significant change

Wind
  • 220° at 12 KTS
Conditions
Mist
Cloud Levels
  • Broken at 500' AGL
  • Overcast at 1,000' AGL

Feb-24@
16:00 UTC

Feb-24 @ 16:00 UTC

Feb-25@
00:00 UTC

Feb-25 @ 00:00 UTC

FM241600 24014G21KT P6SM VCSH SCT010 OVC050

From

From Standard forecast or significant change

Wind
  • 240° at 14 KTS
  • {Gusting to 21 KTS
Cloud Levels
  • Scattered at 1,000' AGL
  • Overcast at 5,000' AGL